Aeroporto :
LOGIN :

Iscrizione | Disclaimer

   EN    FR    IT 

 










Sommario :    VFR   VFR Marginale   IFR   IFR Intensivo   IFR Molto Intensivo
Visibilità : 
Base nubi : 
>= 8 km
>= 3000ft
5 / 8 km
1000 / 3000 ft
1500m / 5 km
500 / 1000 ft
800 / 1500m
200 / 500 ft
< 800m
< 200 ft
Simboli :   Temporali  Nebbia  Neve Forte  Precipitazioni Forti  Vento > 20 kt
SIGMETs :   Varie  Temporali  Ghiacco  Turbolenza  Onda orograficha  Ceneri Vulcaniche







- Altitudine del aeroporto : 856 ft
- Codice IATA : VGO


LEVX - Vigo Peinador

ULTIMO METAR :
  • 260000Z VRB01KT CAVOK 19/17 Q1014 NOSIG

METARs OBSOLETI :
  • 252330Z 01007KT 330V060 9999 FEW030CB 20/17 Q1014 NOSIG
  • 252300Z VRB02KT CAVOK 21/17 Q1015 NOSIG
  • 252230Z 27011KT 240V310 CAVOK 22/17 Q1014 NOSIG
  • 252200Z 21008KT 170V240 CAVOK 23/16 Q1014 NOSIG
  • 252130Z VRB02KT CAVOK 23/19 Q1014 NOSIG

TAF TAF LEVX
Valido dal 26 a 00 ore il 27 a 00 ore UTC


252300Z 2600/2624 VRB03KT CAVOK TX26/2614Z TN17/2606Z
PROB40
TEMPO 2612/2618 3000 SHRA TS SCT030TCU SCT040CB
TEMPO 2612/2618 27010KT
Nessun NOTAM noto per questo aeroporto.



MetMap, La meteo Aeronautica in un colpo d'occhio ! - Copyright ORBIFLY Dicembre 2007 - Disclaimer

ORBIFLY MET'MAP TEAM :

Programmazione e sviluppo : Alexandra Zaïnal
Concezione e sviluppo : Baudouin d'Aumeries
Co-Programmazione e sviluppo : Marc-Olivier Méhu
Supporto tecnico e logistico : Manuel Goepfert
Aiuto per la traduzione : Arnaldo La Scala

Contatto : metmap@orbifly.com




FONTI E CREDITI :

   NOAA